sensor_id;sensor_type;location;lat;lon;timestamp;temperature;humidity
59162;DHT22;44942;48.936;8.260;2023-10-13T00:04:21;24.20;53.30
59162;DHT22;44942;48.936;8.260;2023-10-13T00:09:28;24.20;53.40
59162;DHT22;44942;48.936;8.260;2023-10-13T00:14:32;24.20;53.30
59162;DHT22;44942;48.936;8.260;2023-10-13T00:19:38;24.20;53.30
59162;DHT22;44942;48.936;8.260;2023-10-13T00:24:45;24.20;53.30
59162;DHT22;44942;48.936;8.260;2023-10-13T00:29:46;24.20;53.30
59162;DHT22;44942;48.936;8.260;2023-10-13T00:34:47;24.20;53.20
59162;DHT22;44942;48.936;8.260;2023-10-13T00:39:47;24.20;53.00
59162;DHT22;44942;48.936;8.260;2023-10-13T00:44:48;24.20;52.70
59162;DHT22;44942;48.936;8.260;2023-10-13T00:49:49;24.20;52.60
59162;DHT22;44942;48.936;8.260;2023-10-13T00:54:50;24.20;52.50
59162;DHT22;44942;48.936;8.260;2023-10-13T00:59:53;24.10;52.50
59162;DHT22;44942;48.936;8.260;2023-10-13T01:04:56;24.20;52.90
59162;DHT22;44942;48.936;8.260;2023-10-13T01:09:57;24.10;52.10
59162;DHT22;44942;48.936;8.260;2023-10-13T01:14:57;24.10;52.10
59162;DHT22;44942;48.936;8.260;2023-10-13T01:19:59;24.10;52.00
59162;DHT22;44942;48.936;8.260;2023-10-13T01:25:00;24.20;51.90
59162;DHT22;44942;48.936;8.260;2023-10-13T01:30:13;24.20;52.50
59162;DHT22;44942;48.936;8.260;2023-10-13T01:35:14;24.10;51.70
59162;DHT22;44942;48.936;8.260;2023-10-13T01:40:14;24.20;51.70
59162;DHT22;44942;48.936;8.260;2023-10-13T01:45:19;24.10;51.60
59162;DHT22;44942;48.936;8.260;2023-10-13T01:50:20;24.20;51.60
59162;DHT22;44942;48.936;8.260;2023-10-13T01:55:28;24.10;51.60
59162;DHT22;44942;48.936;8.260;2023-10-13T02:00:28;24.20;51.70
59162;DHT22;44942;48.936;8.260;2023-10-13T02:05:31;24.20;51.70
59162;DHT22;44942;48.936;8.260;2023-10-13T02:10:36;24.20;51.50
59162;DHT22;44942;48.936;8.260;2023-10-13T02:15:44;24.20;51.40
59162;DHT22;44942;48.936;8.260;2023-10-13T02:20:45;24.10;51.30
59162;DHT22;44942;48.936;8.260;2023-10-13T02:25:46;24.10;51.20
59162;DHT22;44942;48.936;8.260;2023-10-13T02:30:47;24.20;51.30
59162;DHT22;44942;48.936;8.260;2023-10-13T02:35:51;24.20;51.20
59162;DHT22;44942;48.936;8.260;2023-10-13T02:40:54;24.10;51.10
59162;DHT22;44942;48.936;8.260;2023-10-13T02:45:56;24.10;51.10
59162;DHT22;44942;48.936;8.260;2023-10-13T02:50:59;24.10;51.00
59162;DHT22;44942;48.936;8.260;2023-10-13T02:56:06;24.10;51.10
59162;DHT22;44942;48.936;8.260;2023-10-13T03:01:09;24.10;51.10
59162;DHT22;44942;48.936;8.260;2023-10-13T03:06:20;24.10;51.10
59162;DHT22;44942;48.936;8.260;2023-10-13T03:11:33;24.10;51.10
59162;DHT22;44942;48.936;8.260;2023-10-13T03:16:33;24.10;51.10
59162;DHT22;44942;48.936;8.260;2023-10-13T03:21:35;24.00;51.10
59162;DHT22;44942;48.936;8.260;2023-10-13T03:26:37;24.00;51.20
59162;DHT22;44942;48.936;8.260;2023-10-13T03:31:44;24.10;51.20
59162;DHT22;44942;48.936;8.260;2023-10-13T03:36:45;24.00;51.10
59162;DHT22;44942;48.936;8.260;2023-10-13T03:41:59;24.00;51.10
59162;DHT22;44942;48.936;8.260;2023-10-13T03:47:00;24.00;51.10
59162;DHT22;44942;48.936;8.260;2023-10-13T03:52:18;23.90;51.10
59162;DHT22;44942;48.936;8.260;2023-10-13T03:57:22;23.90;51.70
59162;DHT22;44942;48.936;8.260;2023-10-13T04:02:28;23.90;51.00
59162;DHT22;44942;48.936;8.260;2023-10-13T04:07:28;23.90;51.10
59162;DHT22;44942;48.936;8.260;2023-10-13T04:13:01;23.90;51.10
59162;DHT22;44942;48.936;8.260;2023-10-13T04:18:21;23.90;51.20
59162;DHT22;44942;48.936;8.260;2023-10-13T04:23:34;23.90;51.20
59162;DHT22;44942;48.936;8.260;2023-10-13T04:28:55;23.90;51.10
59162;DHT22;44942;48.936;8.260;2023-10-13T04:33:57;23.80;51.00
59162;DHT22;44942;48.936;8.260;2023-10-13T04:39:03;23.80;51.10
59162;DHT22;44942;48.936;8.260;2023-10-13T04:44:03;23.80;51.10
59162;DHT22;44942;48.936;8.260;2023-10-13T04:49:23;23.80;51.20
59162;DHT22;44942;48.936;8.260;2023-10-13T04:54:43;23.80;51.10
59162;DHT22;44942;48.936;8.260;2023-10-13T04:59:50;23.80;51.20
59162;DHT22;44942;48.936;8.260;2023-10-13T05:05:13;23.70;51.30
59162;DHT22;44942;48.936;8.260;2023-10-13T05:10:14;23.70;51.20
59162;DHT22;44942;48.936;8.260;2023-10-13T05:15:33;23.70;51.20
59162;DHT22;44942;48.936;8.260;2023-10-13T05:20:55;23.70;51.30
59162;DHT22;44942;48.936;8.260;2023-10-13T05:26:14;23.70;51.40
59162;DHT22;44942;48.936;8.260;2023-10-13T05:31:33;23.70;51.40
59162;DHT22;44942;48.936;8.260;2023-10-13T05:36:53;23.70;51.30
59162;DHT22;44942;48.936;8.260;2023-10-13T05:42:12;23.70;51.40
59162;DHT22;44942;48.936;8.260;2023-10-13T05:47:31;23.50;51.30
59162;DHT22;44942;48.936;8.260;2023-10-13T05:52:38;23.40;51.30
59162;DHT22;44942;48.936;8.260;2023-10-13T05:57:54;23.30;51.40
59162;DHT22;44942;48.936;8.260;2023-10-13T06:03:13;23.20;51.50
59162;DHT22;44942;48.936;8.260;2023-10-13T06:08:33;23.20;51.60
59162;DHT22;44942;48.936;8.260;2023-10-13T06:13:52;23.10;51.60
59162;DHT22;44942;48.936;8.260;2023-10-13T06:19:11;23.00;51.80
59162;DHT22;44942;48.936;8.260;2023-10-13T06:24:31;23.00;51.90
59162;DHT22;44942;48.936;8.260;2023-10-13T06:29:50;22.90;51.90
59162;DHT22;44942;48.936;8.260;2023-10-13T06:34:54;22.80;52.00
59162;DHT22;44942;48.936;8.260;2023-10-13T06:40:23;22.80;52.00
59162;DHT22;44942;48.936;8.260;2023-10-13T06:45:32;22.80;52.10
59162;DHT22;44942;48.936;8.260;2023-10-13T06:50:36;22.80;52.20
59162;DHT22;44942;48.936;8.260;2023-10-13T06:55:41;22.70;52.30
59162;DHT22;44942;48.936;8.260;2023-10-13T07:00:47;22.70;52.30
59162;DHT22;44942;48.936;8.260;2023-10-13T07:05:53;22.70;52.40
59162;DHT22;44942;48.936;8.260;2023-10-13T07:10:55;22.70;52.60
59162;DHT22;44942;48.936;8.260;2023-10-13T07:16:02;22.70;52.60
59162;DHT22;44942;48.936;8.260;2023-10-13T07:21:10;22.70;52.60
59162;DHT22;44942;48.936;8.260;2023-10-13T07:26:11;22.70;52.60
59162;DHT22;44942;48.936;8.260;2023-10-13T07:31:14;22.80;52.50
59162;DHT22;44942;48.936;8.260;2023-10-13T07:36:19;22.80;52.50
59162;DHT22;44942;48.936;8.260;2023-10-13T07:41:34;22.90;52.50
59162;DHT22;44942;48.936;8.260;2023-10-13T07:46:36;22.90;52.40
59162;DHT22;44942;48.936;8.260;2023-10-13T07:51:37;22.90;52.50
59162;DHT22;44942;48.936;8.260;2023-10-13T07:56:44;22.90;52.40
59162;DHT22;44942;48.936;8.260;2023-10-13T08:01:46;23.00;52.50
59162;DHT22;44942;48.936;8.260;2023-10-13T08:06:46;23.00;52.40
59162;DHT22;44942;48.936;8.260;2023-10-13T08:11:49;23.00;52.40
59162;DHT22;44942;48.936;8.260;2023-10-13T08:16:50;23.00;52.40
59162;DHT22;44942;48.936;8.260;2023-10-13T08:21:56;23.00;52.50
59162;DHT22;44942;48.936;8.260;2023-10-13T08:27:17;23.10;52.40
59162;DHT22;44942;48.936;8.260;2023-10-13T08:32:37;23.10;53.10
59162;DHT22;44942;48.936;8.260;2023-10-13T08:37:50;23.10;52.50
59162;DHT22;44942;48.936;8.260;2023-10-13T08:42:51;23.20;52.30
59162;DHT22;44942;48.936;8.260;2023-10-13T08:48:12;23.20;52.30
59162;DHT22;44942;48.936;8.260;2023-10-13T08:53:19;23.20;52.20
59162;DHT22;44942;48.936;8.260;2023-10-13T08:58:34;23.30;52.30
59162;DHT22;44942;48.936;8.260;2023-10-13T09:03:55;23.30;52.20
59162;DHT22;44942;48.936;8.260;2023-10-13T09:09:17;23.30;52.10
59162;DHT22;44942;48.936;8.260;2023-10-13T09:14:27;23.40;52.10
59162;DHT22;44942;48.936;8.260;2023-10-13T09:19:50;23.40;51.90
59162;DHT22;44942;48.936;8.260;2023-10-13T09:24:58;23.40;51.50
59162;DHT22;44942;48.936;8.260;2023-10-13T09:30:01;23.40;51.10
59162;DHT22;44942;48.936;8.260;2023-10-13T09:35:16;23.40;50.60
59162;DHT22;44942;48.936;8.260;2023-10-13T09:40:17;23.50;50.30
59162;DHT22;44942;48.936;8.260;2023-10-13T09:45:38;23.50;50.20
59162;DHT22;44942;48.936;8.260;2023-10-13T09:50:46;23.50;49.80
59162;DHT22;44942;48.936;8.260;2023-10-13T09:55:51;23.50;49.60
59162;DHT22;44942;48.936;8.260;2023-10-13T10:00:57;23.60;49.30
59162;DHT22;44942;48.936;8.260;2023-10-13T10:06:07;23.60;48.80
59162;DHT22;44942;48.936;8.260;2023-10-13T10:17:07;23.60;48.50
59162;DHT22;44942;48.936;8.260;2023-10-13T10:22:08;23.70;48.40
59162;DHT22;44942;48.936;8.260;2023-10-13T10:27:28;23.70;48.00
59162;DHT22;44942;48.936;8.260;2023-10-13T10:32:41;23.70;47.50
59162;DHT22;44942;48.936;8.260;2023-10-13T10:37:42;23.70;47.00
59162;DHT22;44942;48.936;8.260;2023-10-13T10:42:51;23.80;46.80
59162;DHT22;44942;48.936;8.260;2023-10-13T10:47:53;23.80;46.70
59162;DHT22;44942;48.936;8.260;2023-10-13T10:52:58;23.80;46.10
59162;DHT22;44942;48.936;8.260;2023-10-13T10:58:00;23.90;45.80
59162;DHT22;44942;48.936;8.260;2023-10-13T11:03:07;23.90;45.40
59162;DHT22;44942;48.936;8.260;2023-10-13T11:08:08;24.00;45.20
59162;DHT22;44942;48.936;8.260;2023-10-13T11:13:12;24.00;45.00
59162;DHT22;44942;48.936;8.260;2023-10-13T11:18:16;24.10;44.70
59162;DHT22;44942;48.936;8.260;2023-10-13T11:23:21;24.10;44.50
59162;DHT22;44942;48.936;8.260;2023-10-13T11:28:29;24.20;44.50
59162;DHT22;44942;48.936;8.260;2023-10-13T11:33:29;24.20;44.50
59162;DHT22;44942;48.936;8.260;2023-10-13T11:38:34;24.30;44.40
59162;DHT22;44942;48.936;8.260;2023-10-13T11:48:50;24.30;43.90
59162;DHT22;44942;48.936;8.260;2023-10-13T11:53:54;24.40;43.70
59162;DHT22;44942;48.936;8.260;2023-10-13T11:58:56;24.40;43.60
59162;DHT22;44942;48.936;8.260;2023-10-13T12:04:01;24.50;43.60
59162;DHT22;44942;48.936;8.260;2023-10-13T12:09:21;24.50;43.60
59162;DHT22;44942;48.936;8.260;2023-10-13T12:14:22;24.60;43.40
59162;DHT22;44942;48.936;8.260;2023-10-13T12:19:30;24.60;43.30
59162;DHT22;44942;48.936;8.260;2023-10-13T12:24:31;24.60;43.10
59162;DHT22;44942;48.936;8.260;2023-10-13T12:29:37;24.70;43.00
59162;DHT22;44942;48.936;8.260;2023-10-13T12:34:46;24.80;43.00
59162;DHT22;44942;48.936;8.260;2023-10-13T12:40:06;24.90;43.00
59162;DHT22;44942;48.936;8.260;2023-10-13T12:45:26;24.90;42.90
59162;DHT22;44942;48.936;8.260;2023-10-13T12:50:45;24.90;42.80
59162;DHT22;44942;48.936;8.260;2023-10-13T12:55:57;25.00;42.70
59162;DHT22;44942;48.936;8.260;2023-10-13T13:01:01;25.00;42.60
59162;DHT22;44942;48.936;8.260;2023-10-13T13:06:06;25.10;42.50
59162;DHT22;44942;48.936;8.260;2023-10-13T13:11:07;25.20;42.30
59162;DHT22;44942;48.936;8.260;2023-10-13T13:16:08;25.20;42.20
59162;DHT22;44942;48.936;8.260;2023-10-13T13:21:09;25.30;42.20
59162;DHT22;44942;48.936;8.260;2023-10-13T13:26:13;25.30;42.10
59162;DHT22;44942;48.936;8.260;2023-10-13T13:31:17;25.30;42.20
59162;DHT22;44942;48.936;8.260;2023-10-13T13:36:17;25.40;42.00
59162;DHT22;44942;48.936;8.260;2023-10-13T13:41:19;25.40;41.90
59162;DHT22;44942;48.936;8.260;2023-10-13T13:46:21;25.50;41.90
59162;DHT22;44942;48.936;8.260;2023-10-13T13:51:30;25.50;42.00
59162;DHT22;44942;48.936;8.260;2023-10-13T13:56:32;25.60;42.10
59162;DHT22;44942;48.936;8.260;2023-10-13T14:01:38;25.60;42.10
59162;DHT22;44942;48.936;8.260;2023-10-13T14:06:40;25.60;42.00
59162;DHT22;44942;48.936;8.260;2023-10-13T14:11:41;25.70;41.90
59162;DHT22;44942;48.936;8.260;2023-10-13T14:17:01;25.70;41.80
59162;DHT22;44942;48.936;8.260;2023-10-13T14:22:07;25.80;41.80
59162;DHT22;44942;48.936;8.260;2023-10-13T14:27:08;25.80;41.60
59162;DHT22;44942;48.936;8.260;2023-10-13T14:32:10;25.90;41.70
59162;DHT22;44942;48.936;8.260;2023-10-13T14:37:13;25.90;41.60
59162;DHT22;44942;48.936;8.260;2023-10-13T14:42:14;26.00;41.60
59162;DHT22;44942;48.936;8.260;2023-10-13T14:47:17;26.00;41.50
59162;DHT22;44942;48.936;8.260;2023-10-13T14:52:18;26.00;41.40
59162;DHT22;44942;48.936;8.260;2023-10-13T14:57:18;26.10;42.00
59162;DHT22;44942;48.936;8.260;2023-10-13T15:02:24;26.10;41.20
59162;DHT22;44942;48.936;8.260;2023-10-13T15:07:25;26.20;41.30
59162;DHT22;44942;48.936;8.260;2023-10-13T15:12:28;26.20;41.30
59162;DHT22;44942;48.936;8.260;2023-10-13T15:17:28;26.20;41.00
59162;DHT22;44942;48.936;8.260;2023-10-13T15:22:29;26.20;41.00
59162;DHT22;44942;48.936;8.260;2023-10-13T18:23:24;25.70;42.40
59162;DHT22;44942;48.936;8.260;2023-10-13T18:28:24;25.70;42.30
59162;DHT22;44942;48.936;8.260;2023-10-13T18:33:25;25.60;42.20
59162;DHT22;44942;48.936;8.260;2023-10-13T18:38:26;25.60;42.00
59162;DHT22;44942;48.936;8.260;2023-10-13T18:43:31;25.60;41.90
59162;DHT22;44942;48.936;8.260;2023-10-13T18:48:35;25.60;41.70
59162;DHT22;44942;48.936;8.260;2023-10-13T18:53:36;25.60;41.60
59162;DHT22;44942;48.936;8.260;2023-10-13T18:58:46;25.60;42.20
59162;DHT22;44942;48.936;8.260;2023-10-13T19:03:57;25.60;41.90
59162;DHT22;44942;48.936;8.260;2023-10-13T19:09:00;25.60;42.00
59162;DHT22;44942;48.936;8.260;2023-10-13T19:14:05;25.60;42.10
59162;DHT22;44942;48.936;8.260;2023-10-13T19:19:10;25.60;42.10
59162;DHT22;44942;48.936;8.260;2023-10-13T19:24:11;25.60;42.20
59162;DHT22;44942;48.936;8.260;2023-10-13T19:29:11;25.50;42.20
59162;DHT22;44942;48.936;8.260;2023-10-13T19:34:12;25.50;42.20
59162;DHT22;44942;48.936;8.260;2023-10-13T19:39:18;25.50;42.20
59162;DHT22;44942;48.936;8.260;2023-10-13T19:44:25;25.50;42.30
59162;DHT22;44942;48.936;8.260;2023-10-13T19:49:26;25.50;42.40
59162;DHT22;44942;48.936;8.260;2023-10-13T19:54:26;25.50;42.40
59162;DHT22;44942;48.936;8.260;2023-10-13T19:59:27;25.50;42.40
59162;DHT22;44942;48.936;8.260;2023-10-13T20:04:28;25.50;42.40
59162;DHT22;44942;48.936;8.260;2023-10-13T20:09:29;25.50;42.50
59162;DHT22;44942;48.936;8.260;2023-10-13T20:14:30;25.50;42.60
59162;DHT22;44942;48.936;8.260;2023-10-13T20:19:32;25.50;42.60
59162;DHT22;44942;48.936;8.260;2023-10-13T20:24:33;25.40;42.50
59162;DHT22;44942;48.936;8.260;2023-10-13T20:29:33;25.40;42.70
59162;DHT22;44942;48.936;8.260;2023-10-13T20:34:34;25.40;42.70
59162;DHT22;44942;48.936;8.260;2023-10-13T20:39:34;25.40;42.80
59162;DHT22;44942;48.936;8.260;2023-10-13T20:44:35;25.40;42.90
59162;DHT22;44942;48.936;8.260;2023-10-13T20:49:37;25.40;43.00
59162;DHT22;44942;48.936;8.260;2023-10-13T20:54:43;25.30;42.80
59162;DHT22;44942;48.936;8.260;2023-10-13T20:59:45;25.40;42.90
59162;DHT22;44942;48.936;8.260;2023-10-13T21:04:46;25.40;42.90
59162;DHT22;44942;48.936;8.260;2023-10-13T21:09:46;25.30;43.00
59162;DHT22;44942;48.936;8.260;2023-10-13T21:14:47;25.30;43.00
59162;DHT22;44942;48.936;8.260;2023-10-13T21:19:48;25.30;43.00
59162;DHT22;44942;48.936;8.260;2023-10-13T21:24:49;25.30;42.90
59162;DHT22;44942;48.936;8.260;2023-10-13T21:29:50;25.30;43.00
59162;DHT22;44942;48.936;8.260;2023-10-13T21:34:51;25.30;43.00
59162;DHT22;44942;48.936;8.260;2023-10-13T21:39:52;25.30;43.10
59162;DHT22;44942;48.936;8.260;2023-10-13T21:44:52;25.30;43.10
59162;DHT22;44942;48.936;8.260;2023-10-13T21:49:56;25.30;43.20
59162;DHT22;44942;48.936;8.260;2023-10-13T21:54:58;25.30;43.20
59162;DHT22;44942;48.936;8.260;2023-10-13T21:59:59;25.30;43.20
59162;DHT22;44942;48.936;8.260;2023-10-13T22:05:00;25.30;43.20
59162;DHT22;44942;48.936;8.260;2023-10-13T22:10:01;25.30;43.20
59162;DHT22;44942;48.936;8.260;2023-10-13T22:15:01;25.30;43.20
59162;DHT22;44942;48.936;8.260;2023-10-13T22:20:04;25.30;43.10
59162;DHT22;44942;48.936;8.260;2023-10-13T22:25:05;25.20;43.00
59162;DHT22;44942;48.936;8.260;2023-10-13T22:30:14;25.30;43.10
59162;DHT22;44942;48.936;8.260;2023-10-13T22:35:24;25.30;43.10
59162;DHT22;44942;48.936;8.260;2023-10-13T22:40:25;25.20;43.00
59162;DHT22;44942;48.936;8.260;2023-10-13T22:45:28;25.20;42.90
59162;DHT22;44942;48.936;8.260;2023-10-13T22:50:31;25.20;43.00
59162;DHT22;44942;48.936;8.260;2023-10-13T22:55:32;25.20;43.00
59162;DHT22;44942;48.936;8.260;2023-10-13T23:00:44;25.20;43.10
59162;DHT22;44942;48.936;8.260;2023-10-13T23:05:45;25.20;43.00
59162;DHT22;44942;48.936;8.260;2023-10-13T23:10:51;25.20;43.00
59162;DHT22;44942;48.936;8.260;2023-10-13T23:15:52;25.20;43.00
59162;DHT22;44942;48.936;8.260;2023-10-13T23:20:54;25.20;43.00
59162;DHT22;44942;48.936;8.260;2023-10-13T23:25:54;25.20;43.10
59162;DHT22;44942;48.936;8.260;2023-10-13T23:30:56;25.20;43.10
59162;DHT22;44942;48.936;8.260;2023-10-13T23:35:57;25.20;43.10
59162;DHT22;44942;48.936;8.260;2023-10-13T23:40:58;25.20;43.10
59162;DHT22;44942;48.936;8.260;2023-10-13T23:45:59;25.20;43.20
59162;DHT22;44942;48.936;8.260;2023-10-13T23:51:01;25.10;43.30
59162;DHT22;44942;48.936;8.260;2023-10-13T23:56:08;25.10;43.30
